Cobalt City, Missouri
Current Conditions -  °F | °C
As of 11:15 AM on Saturday 25 Oct 2014 (Local Time) from KFAM Reporting Station
Clear Clear  
Wind Chill: 72°   Ceiling: Unl
Heat Index: 72°   Visibility: 10mi
Dew Point: 61°   Wind: 0mph
Humidity: 69%   Direction: NA
Pressure: 30.08"   Gusts: NA
Location:  37.4979°N, 90.375°W
Report Text: KFAM 251615Z AUTO 00000KT 10SM CLR 22/16 A3008 RMK AO1
Loading
Personal Weather Stations






























Interactive Weather Map
Tropical Storm Tracking
New forecast layout! Learn more

10-Day Weather Forecast

Advertisements
Track Severe Weather on mobile